Time;durP1;ratioP1;P1;durP2;ratioP2;P2;SDS_P1;SDS_P2;PMS_P1;PMS_P2;Temp;Humidity;BMP_temperature;BMP_pressure;BME280_temperature;BME280_humidity;BME280_pressure;Samples;Min_cycle;Max_cycle;Signal;HPM_P1;HPM_P2
2023/12/02 00:00:01;;;;;;;1.30;0.70;;;;;;;;;;5109987;28;20514;-72
2023/12/02 00:02:27;;;;;;;4.07;0.85;;;;;;;;;;5110154;28;20079;-72
2023/12/02 00:04:54;;;;;;;2.05;0.70;;;;;;;;;;5109886;28;20054;-72
2023/12/02 00:07:22;;;;;;;1.95;0.93;;;;;;;;;;5110225;28;20048;-73
2023/12/02 00:09:51;;;;;;;1.83;0.68;;;;;;;;;;5109636;28;20047;-73
2023/12/02 00:12:18;;;;;;;1.25;0.60;;;;;;;;;;5110169;28;20051;-73
2023/12/02 00:14:47;;;;;;;2.03;0.80;;;;;;;;;;5109770;28;20411;-73
2023/12/02 00:17:17;;;;;;;1.67;0.90;;;;;;;;;;5110115;28;20047;-73
2023/12/02 00:19:43;;;;;;;2.28;0.85;;;;;;;;;;5094156;27;20051;-72
2023/12/02 00:22:10;;;;;;;1.42;0.88;;;;;;;;;;5118974;27;20052;-74
2023/12/02 00:24:37;;;;;;;1.58;0.80;;;;;;;;;;5117849;27;20047;-74
2023/12/02 00:27:04;;;;;;;2.45;0.90;;;;;;;;;;5102093;27;20039;-73
2023/12/02 00:29:31;;;;;;;1.23;0.70;;;;;;;;;;5119398;27;20484;-73
2023/12/02 00:31:57;;;;;;;1.08;0.75;;;;;;;;;;5118199;27;20499;-73
2023/12/02 00:34:24;;;;;;;1.83;0.70;;;;;;;;;;5119877;27;20055;-73
2023/12/02 00:36:51;;;;;;;1.30;0.60;;;;;;;;;;5119471;27;20080;-73
2023/12/02 00:39:17;;;;;;;1.27;0.80;;;;;;;;;;5117573;27;20089;-73
2023/12/02 00:41:44;;;;;;;1.80;0.65;;;;;;;;;;5119823;27;20426;-73
2023/12/02 00:44:10;;;;;;;4.45;0.90;;;;;;;;;;5119145;27;20039;-73
2023/12/02 00:46:37;;;;;;;4.03;0.90;;;;;;;;;;5117868;27;20435;-73
2023/12/02 00:49:04;;;;;;;2.60;0.98;;;;;;;;;;5120135;27;20039;-73
2023/12/02 00:51:31;;;;;;;2.25;0.90;;;;;;;;;;5119365;27;20042;-72
2023/12/02 00:53:57;;;;;;;1.55;0.82;;;;;;;;;;5109407;27;20047;-72
2023/12/02 00:56:24;;;;;;;1.73;0.90;;;;;;;;;;5108978;28;20695;-73
2023/12/02 00:58:51;;;;;;;1.58;0.80;;;;;;;;;;5109038;28;20044;-72
2023/12/02 01:01:23;;;;;;;2.13;1.00;;;;;;;;;;5091107;28;20514;-73
2023/12/02 01:03:49;;;;;;;2.60;1.00;;;;;;;;;;5109021;28;20054;-73
2023/12/02 01:06:16;;;;;;;2.00;0.80;;;;;;;;;;5109084;28;20526;-73
2023/12/02 01:08:43;;;;;;;2.20;1.00;;;;;;;;;;5109274;28;20092;-72
2023/12/02 01:11:09;;;;;;;1.15;0.88;;;;;;;;;;5109016;28;20050;-73
2023/12/02 01:13:36;;;;;;;2.28;0.90;;;;;;;;;;5108607;28;20625;-73
2023/12/02 01:16:03;;;;;;;1.38;0.80;;;;;;;;;;5108939;28;20048;-72
2023/12/02 01:18:30;;;;;;;1.95;1.10;;;;;;;;;;5108630;28;20043;-72
2023/12/02 01:20:57;;;;;;;0.98;0.70;;;;;;;;;;5108569;28;20047;-72
2023/12/02 01:23:24;;;;;;;1.63;0.90;;;;;;;;;;5108696;28;20039;-73
2023/12/02 01:25:51;;;;;;;1.08;0.70;;;;;;;;;;5108884;28;20043;-73
2023/12/02 01:28:17;;;;;;;2.45;1.00;;;;;;;;;;5108957;28;20503;-72
2023/12/02 01:30:44;;;;;;;3.63;0.98;;;;;;;;;;5108707;28;20446;-72
2023/12/02 01:33:10;;;;;;;1.25;0.80;;;;;;;;;;5109421;28;20415;-72
2023/12/02 01:35:37;;;;;;;1.45;0.80;;;;;;;;;;5112773;28;20434;-73
2023/12/02 01:38:04;;;;;;;1.10;0.90;;;;;;;;;;5113037;28;20052;-72
2023/12/02 01:40:30;;;;;;;1.52;1.00;;;;;;;;;;5094570;28;20043;-71
2023/12/02 01:42:57;;;;;;;2.25;0.80;;;;;;;;;;5112639;28;20491;-72
2023/12/02 01:45:24;;;;;;;1.48;0.88;;;;;;;;;;5113168;28;20376;-72
2023/12/02 01:47:51;;;;;;;1.10;0.75;;;;;;;;;;5112848;28;20048;-72
2023/12/02 01:50:18;;;;;;;1.73;0.93;;;;;;;;;;5112333;28;20411;-72
2023/12/02 01:52:45;;;;;;;1.38;0.93;;;;;;;;;;5112576;28;20549;-73
2023/12/02 01:55:12;;;;;;;1.92;1.00;;;;;;;;;;5112058;28;20085;-72
2023/12/02 01:57:39;;;;;;;2.85;0.88;;;;;;;;;;5112462;28;20051;-72
2023/12/02 02:00:07;;;;;;;2.00;0.93;;;;;;;;;;5112872;28;20047;-72
2023/12/02 02:02:33;;;;;;;1.50;0.90;;;;;;;;;;5112565;28;20138;-74
2023/12/02 02:05:01;;;;;;;1.83;1.13;;;;;;;;;;5112468;28;20051;-74
2023/12/02 02:07:28;;;;;;;1.90;1.00;;;;;;;;;;5112276;28;20046;-74
2023/12/02 02:09:55;;;;;;;2.38;1.23;;;;;;;;;;5112024;28;20059;-75
2023/12/02 02:12:21;;;;;;;1.88;1.00;;;;;;;;;;5112046;28;20040;-72
2023/12/02 02:14:48;;;;;;;3.63;1.00;;;;;;;;;;5112433;28;20256;-73
2023/12/02 02:17:15;;;;;;;1.17;0.93;;;;;;;;;;5112147;28;20043;-73
2023/12/02 02:19:42;;;;;;;2.53;1.00;;;;;;;;;;5112295;28;20487;-73
2023/12/02 02:22:08;;;;;;;1.60;0.90;;;;;;;;;;5111708;28;20537;-73
2023/12/02 02:24:35;;;;;;;1.52;0.90;;;;;;;;;;5111713;28;20138;-73
2023/12/02 02:27:02;;;;;;;2.10;1.02;;;;;;;;;;5093522;28;20067;-73
2023/12/02 02:29:29;;;;;;;1.55;1.05;;;;;;;;;;5112231;28;20044;-74
2023/12/02 02:31:56;;;;;;;2.90;1.02;;;;;;;;;;5111814;28;20047;-73
2023/12/02 02:34:23;;;;;;;2.30;1.13;;;;;;;;;;5112092;28;20043;-72
2023/12/02 02:36:49;;;;;;;2.95;1.25;;;;;;;;;;5111967;28;20052;-73
2023/12/02 02:39:16;;;;;;;3.75;1.35;;;;;;;;;;5111471;28;20608;-72
2023/12/02 02:41:43;;;;;;;2.67;1.42;;;;;;;;;;5111663;28;20070;-72
2023/12/02 02:44:09;;;;;;;2.72;1.30;;;;;;;;;;5110904;28;20051;-72
2023/12/02 02:46:36;;;;;;;2.47;1.40;;;;;;;;;;5111480;28;20043;-73
2023/12/02 02:49:03;;;;;;;2.15;1.20;;;;;;;;;;5111820;28;20101;-73
2023/12/02 02:51:30;;;;;;;2.30;1.08;;;;;;;;;;5111410;28;20441;-72
2023/12/02 02:53:56;;;;;;;2.50;1.30;;;;;;;;;;5111175;28;20404;-73
2023/12/02 02:56:23;;;;;;;3.00;1.30;;;;;;;;;;5111406;28;20050;-74
2023/12/02 02:58:50;;;;;;;1.60;1.10;;;;;;;;;;5111612;28;20044;-73
2023/12/02 03:01:16;;;;;;;1.35;0.95;;;;;;;;;;5111424;28;20043;-72
2023/12/02 03:03:44;;;;;;;2.13;1.00;;;;;;;;;;5111045;28;20043;-72
2023/12/02 03:06:11;;;;;;;1.83;1.13;;;;;;;;;;5111286;28;20500;-72
2023/12/02 03:08:38;;;;;;;1.70;1.10;;;;;;;;;;5111000;28;20101;-72
2023/12/02 03:11:05;;;;;;;2.10;1.20;;;;;;;;;;5111331;28;20050;-72
2023/12/02 03:13:32;;;;;;;1.20;1.00;;;;;;;;;;5111122;28;20044;-73
2023/12/02 03:15:58;;;;;;;1.83;1.20;;;;;;;;;;5110901;28;20043;-72
2023/12/02 03:18:25;;;;;;;1.35;1.00;;;;;;;;;;5111036;28;20051;-72
2023/12/02 03:20:52;;;;;;;3.15;0.95;;;;;;;;;;5110816;28;20047;-72
2023/12/02 03:23:19;;;;;;;2.47;1.00;;;;;;;;;;5111202;28;20039;-72
2023/12/02 03:25:45;;;;;;;2.28;1.20;;;;;;;;;;5110496;28;20047;-72
2023/12/02 03:28:12;;;;;;;1.40;1.00;;;;;;;;;;5110807;28;20047;-72
2023/12/02 03:30:39;;;;;;;2.22;1.30;;;;;;;;;;5110996;28;20055;-72
2023/12/02 03:33:06;;;;;;;2.90;2.03;;;;;;;;;;5110397;28;20052;-72
2023/12/02 03:35:33;;;;;;;3.10;1.98;;;;;;;;;;5110425;28;20522;-72
2023/12/02 03:38:00;;;;;;;3.33;1.92;;;;;;;;;;5110268;28;20423;-73
2023/12/02 03:40:26;;;;;;;4.10;2.00;;;;;;;;;;5110491;28;20048;-72
2023/12/02 03:42:53;;;;;;;4.65;2.40;;;;;;;;;;5110780;28;20051;-73
2023/12/02 03:45:21;;;;;;;3.97;2.47;;;;;;;;;;5110621;28;20054;-73
2023/12/02 03:47:48;;;;;;;3.42;2.00;;;;;;;;;;5110371;28;20040;-72
2023/12/02 03:50:14;;;;;;;4.13;2.40;;;;;;;;;;5110773;28;20078;-72
2023/12/02 03:52:44;;;;;;;3.25;1.90;;;;;;;;;;5110110;28;20143;-72
2023/12/02 03:55:11;;;;;;;3.60;2.00;;;;;;;;;;5109659;28;20051;-72
2023/12/02 03:57:38;;;;;;;4.07;1.90;;;;;;;;;;5109732;28;20047;-72
2023/12/02 04:00:10;;;;;;;3.35;2.00;;;;;;;;;;5110520;28;20097;-72
2023/12/02 04:02:38;;;;;;;3.90;1.90;;;;;;;;;;5110293;28;20066;-72
2023/12/02 04:05:09;;;;;;;5.03;2.22;;;;;;;;;;5110275;28;20063;-72
2023/12/02 04:07:37;;;;;;;4.40;2.40;;;;;;;;;;5110300;28;20051;-72
2023/12/02 04:10:04;;;;;;;5.38;2.00;;;;;;;;;;5109404;28;20457;-72
2023/12/02 04:12:31;;;;;;;3.45;2.22;;;;;;;;;;5109607;28;20043;-72
2023/12/02 04:14:58;;;;;;;5.75;2.40;;;;;;;;;;5109995;28;20090;-72
2023/12/02 04:17:28;;;;;;;5.97;2.63;;;;;;;;;;5109842;28;20065;-72
2023/12/02 04:19:55;;;;;;;3.75;2.33;;;;;;;;;;5110081;28;20070;-72
2023/12/02 04:22:21;;;;;;;4.40;2.30;;;;;;;;;;5109432;28;20051;-72
2023/12/02 04:24:48;;;;;;;4.75;2.50;;;;;;;;;;5109412;28;20078;-72
2023/12/02 04:27:15;;;;;;;6.25;2.70;;;;;;;;;;5109564;28;20040;-73
2023/12/02 04:29:42;;;;;;;4.13;2.38;;;;;;;;;;5109497;28;20044;-73
2023/12/02 04:32:09;;;;;;;4.53;2.58;;;;;;;;;;5109553;28;20511;-73
2023/12/02 04:34:36;;;;;;;4.30;2.25;;;;;;;;;;5109204;28;20426;-73
2023/12/02 04:37:03;;;;;;;7.13;2.35;;;;;;;;;;5109716;28;20108;-73
2023/12/02 04:39:30;;;;;;;4.13;2.30;;;;;;;;;;5109455;28;20047;-72
2023/12/02 04:41:56;;;;;;;6.07;2.45;;;;;;;;;;5109453;28;20047;-73
2023/12/02 04:44:23;;;;;;;4.15;2.50;;;;;;;;;;5108953;28;20069;-72
2023/12/02 04:46:50;;;;;;;4.47;2.58;;;;;;;;;;5109349;28;20127;-72
2023/12/02 04:49:17;;;;;;;5.00;2.38;;;;;;;;;;5119919;27;20051;-72
2023/12/02 04:51:43;;;;;;;4.22;2.63;;;;;;;;;;5108861;28;20593;-72
2023/12/02 04:54:10;;;;;;;4.72;2.60;;;;;;;;;;5108586;28;20093;-72
2023/12/02 04:56:37;;;;;;;6.80;2.88;;;;;;;;;;5109107;28;20043;-72
2023/12/02 04:59:04;;;;;;;4.25;2.45;;;;;;;;;;5108654;28;20258;-72
2023/12/02 05:01:31;;;;;;;4.82;2.50;;;;;;;;;;5108725;28;20039;-72
2023/12/02 05:03:58;;;;;;;4.43;2.60;;;;;;;;;;5108230;28;21358;-73
2023/12/02 05:06:25;;;;;;;4.05;2.53;;;;;;;;;;5098761;28;20046;-73
2023/12/02 05:08:52;;;;;;;4.80;2.53;;;;;;;;;;5107902;28;20100;-73
2023/12/02 05:11:20;;;;;;;4.30;2.13;;;;;;;;;;5108779;28;20427;-73
2023/12/02 05:13:47;;;;;;;4.28;2.28;;;;;;;;;;5108349;28;20040;-73
2023/12/02 05:16:14;;;;;;;4.78;2.05;;;;;;;;;;5108465;28;20190;-73
2023/12/02 05:18:41;;;;;;;3.20;1.80;;;;;;;;;;5108350;28;20044;-73
2023/12/02 05:21:12;;;;;;;3.50;1.92;;;;;;;;;;5108168;28;20039;-73
2023/12/02 05:23:40;;;;;;;4.20;2.30;;;;;;;;;;5107615;28;20047;-73
2023/12/02 05:26:07;;;;;;;3.47;1.88;;;;;;;;;;5108634;28;20048;-74
2023/12/02 05:28:34;;;;;;;4.32;2.22;;;;;;;;;;5109052;28;20043;-73
2023/12/02 05:31:01;;;;;;;3.72;2.03;;;;;;;;;;5108932;28;20510;-73
2023/12/02 05:33:28;;;;;;;4.03;2.10;;;;;;;;;;5108954;28;20055;-73
2023/12/02 05:35:55;;;;;;;4.32;1.95;;;;;;;;;;5108971;28;20457;-74
2023/12/02 05:38:21;;;;;;;3.22;2.08;;;;;;;;;;5089874;28;20051;-72
2023/12/02 05:40:48;;;;;;;3.17;1.95;;;;;;;;;;5109077;28;20039;-73
2023/12/02 05:43:15;;;;;;;4.72;2.30;;;;;;;;;;5108610;28;20044;-72
2023/12/02 05:45:42;;;;;;;4.85;1.95;;;;;;;;;;5108674;28;20119;-73
2023/12/02 05:48:08;;;;;;;5.05;2.53;;;;;;;;;;5108753;28;20564;-72
2023/12/02 05:50:35;;;;;;;6.20;2.78;;;;;;;;;;5109125;28;20082;-74
2023/12/02 05:53:04;;;;;;;4.55;2.35;;;;;;;;;;5108684;28;20048;-73
2023/12/02 05:55:31;;;;;;;3.50;2.08;;;;;;;;;;5108181;28;20524;-73
2023/12/02 05:57:58;;;;;;;3.85;2.20;;;;;;;;;;5090134;28;20054;-73
2023/12/02 06:00:25;;;;;;;5.13;2.60;;;;;;;;;;5108428;28;20456;-72
2023/12/02 06:02:52;;;;;;;7.93;2.63;;;;;;;;;;5090858;28;20143;-73
2023/12/02 06:05:18;;;;;;;4.07;2.38;;;;;;;;;;5108214;28;20048;-73
2023/12/02 06:07:45;;;;;;;4.45;2.40;;;;;;;;;;5108750;28;20397;-72
2023/12/02 06:10:12;;;;;;;4.75;2.45;;;;;;;;;;5108013;28;20409;-73
2023/12/02 06:12:39;;;;;;;4.47;2.25;;;;;;;;;;5108381;28;20507;-73
2023/12/02 06:15:06;;;;;;;5.45;2.50;;;;;;;;;;5108242;28;20040;-73
2023/12/02 06:17:33;;;;;;;3.65;2.20;;;;;;;;;;5108382;28;20040;-73
2023/12/02 06:20:00;;;;;;;5.25;2.40;;;;;;;;;;5110396;28;20054;-73
2023/12/02 06:22:32;;;;;;;4.25;2.40;;;;;;;;;;5112238;28;20624;-73
2023/12/02 06:24:58;;;;;;;7.53;3.00;;;;;;;;;;5093507;28;20055;-73
2023/12/02 06:27:25;;;;;;;4.63;2.40;;;;;;;;;;5112378;28;20582;-73
2023/12/02 06:29:52;;;;;;;6.88;2.47;;;;;;;;;;5111715;28;20054;-73
2023/12/02 06:32:19;;;;;;;4.68;2.40;;;;;;;;;;5111809;28;20043;-73
2023/12/02 06:34:45;;;;;;;4.88;2.90;;;;;;;;;;5111647;28;20408;-74
2023/12/02 06:37:12;;;;;;;5.25;3.05;;;;;;;;;;5111826;28;20043;-73
2023/12/02 06:39:38;;;;;;;4.13;2.53;;;;;;;;;;5111266;28;20047;-73
2023/12/02 06:42:05;;;;;;;5.70;3.15;;;;;;;;;;5093757;28;20567;-73
2023/12/02 06:44:32;;;;;;;6.70;2.85;;;;;;;;;;5111539;28;20399;-73
2023/12/02 06:46:59;;;;;;;7.25;3.13;;;;;;;;;;5111582;28;20066;-73
2023/12/02 06:49:26;;;;;;;8.32;3.60;;;;;;;;;;5111378;28;20143;-72
2023/12/02 06:51:52;;;;;;;6.18;3.40;;;;;;;;;;5111592;28;20048;-73
2023/12/02 06:54:19;;;;;;;7.25;3.33;;;;;;;;;;5110739;28;20052;-72
2023/12/02 06:56:46;;;;;;;6.35;3.50;;;;;;;;;;5111508;28;20108;-73
2023/12/02 06:59:12;;;;;;;6.82;3.65;;;;;;;;;;5111104;28;20043;-73
2023/12/02 07:01:40;;;;;;;9.02;3.95;;;;;;;;;;5111312;28;20044;-73
2023/12/02 07:04:07;;;;;;;5.75;3.40;;;;;;;;;;5111365;28;20043;-73
2023/12/02 07:06:34;;;;;;;10.32;4.05;;;;;;;;;;5110852;28;20134;-73
2023/12/02 07:09:01;;;;;;;7.65;3.60;;;;;;;;;;5110401;28;20089;-73
2023/12/02 07:11:28;;;;;;;6.18;3.53;;;;;;;;;;5111160;28;20047;-74
2023/12/02 07:13:54;;;;;;;6.78;3.80;;;;;;;;;;5111012;28;20515;-74
2023/12/02 07:16:21;;;;;;;5.97;3.10;;;;;;;;;;5110759;28;20051;-73
2023/12/02 07:18:48;;;;;;;6.70;3.42;;;;;;;;;;5111062;28;20050;-73
2023/12/02 07:21:15;;;;;;;8.27;3.80;;;;;;;;;;5110763;28;20573;-73
2023/12/02 07:23:43;;;;;;;6.40;3.45;;;;;;;;;;5110422;28;20411;-74
2023/12/02 07:26:10;;;;;;;7.47;3.60;;;;;;;;;;5110697;28;20043;-74
2023/12/02 07:28:37;;;;;;;7.80;3.95;;;;;;;;;;5110997;28;20455;-72
2023/12/02 07:31:04;;;;;;;7.20;4.07;;;;;;;;;;5110474;28;20423;-71
2023/12/02 07:33:31;;;;;;;7.50;3.60;;;;;;;;;;5111060;28;20057;-72
2023/12/02 07:35:57;;;;;;;7.50;3.78;;;;;;;;;;5110446;28;20511;-72
2023/12/02 07:38:24;;;;;;;6.70;3.58;;;;;;;;;;5110206;28;20526;-72
2023/12/02 07:40:50;;;;;;;7.10;3.85;;;;;;;;;;5110358;28;20090;-72
2023/12/02 07:43:17;;;;;;;6.85;3.80;;;;;;;;;;5092079;28;20435;-72
2023/12/02 07:45:44;;;;;;;6.22;3.22;;;;;;;;;;5092088;28;20044;-72
2023/12/02 07:48:10;;;;;;;6.65;3.40;;;;;;;;;;5110585;28;20526;-72
2023/12/02 07:50:38;;;;;;;4.90;3.13;;;;;;;;;;5110481;28;20047;-73
2023/12/02 07:53:05;;;;;;;6.32;3.67;;;;;;;;;;5110649;28;20066;-72
2023/12/02 07:55:32;;;;;;;6.07;3.25;;;;;;;;;;5109924;28;20118;-71
2023/12/02 07:57:58;;;;;;;6.10;3.00;;;;;;;;;;5110018;28;20040;-72
2023/12/02 08:00:25;;;;;;;7.15;2.95;;;;;;;;;;5109845;28;20048;-71
2023/12/02 08:02:52;;;;;;;7.28;3.53;;;;;;;;;;5110378;28;20075;-71
2023/12/02 08:05:19;;;;;;;7.55;3.40;;;;;;;;;;5109947;28;20126;-73
2023/12/02 08:07:51;;;;;;;7.43;3.93;;;;;;;;;;5109891;28;20411;-72
2023/12/02 08:10:18;;;;;;;6.57;3.35;;;;;;;;;;5109587;28;20364;-74
2023/12/02 08:12:44;;;;;;;6.70;3.08;;;;;;;;;;5109925;28;20051;-72
2023/12/02 08:15:11;;;;;;;5.90;3.60;;;;;;;;;;5109930;28;20127;-72
2023/12/02 08:17:38;;;;;;;6.05;3.25;;;;;;;;;;5109740;28;20055;-72
2023/12/02 08:20:05;;;;;;;6.40;3.53;;;;;;;;;;5109483;28;20057;-73
2023/12/02 08:22:33;;;;;;;6.40;3.70;;;;;;;;;;5092157;28;20138;-72
2023/12/02 08:25:00;;;;;;;7.13;3.70;;;;;;;;;;5109137;28;20082;-72
2023/12/02 08:27:26;;;;;;;6.20;3.67;;;;;;;;;;5109679;28;20537;-72
2023/12/02 08:29:53;;;;;;;6.35;3.67;;;;;;;;;;5109487;28;20044;-73
2023/12/02 08:32:20;;;;;;;6.47;3.45;;;;;;;;;;5109740;28;20051;-72
2023/12/02 08:34:46;;;;;;;6.07;3.53;;;;;;;;;;5109640;28;20047;-73
2023/12/02 08:37:13;;;;;;;5.93;3.40;;;;;;;;;;5109272;28;20051;-72
2023/12/02 08:39:40;;;;;;;6.50;3.65;;;;;;;;;;5108823;28;20047;-72
2023/12/02 08:42:06;;;;;;;7.82;3.78;;;;;;;;;;5109138;28;20576;-72
2023/12/02 08:44:33;;;;;;;6.22;3.67;;;;;;;;;;5109503;28;20601;-72
2023/12/02 08:47:01;;;;;;;6.03;3.53;;;;;;;;;;5109255;28;20039;-72
2023/12/02 08:49:28;;;;;;;7.43;3.70;;;;;;;;;;5109634;28;20052;-73
2023/12/02 08:51:56;;;;;;;6.85;3.67;;;;;;;;;;5109155;28;20126;-72
2023/12/02 08:54:25;;;;;;;6.97;3.80;;;;;;;;;;5108896;28;20043;-73
2023/12/02 08:56:51;;;;;;;6.05;3.65;;;;;;;;;;5108680;28;20047;-72
2023/12/02 08:59:18;;;;;;;7.63;3.90;;;;;;;;;;5090836;28;20517;-73
2023/12/02 09:01:45;;;;;;;5.72;3.30;;;;;;;;;;5108997;28;20529;-73
2023/12/02 09:04:11;;;;;;;6.72;3.72;;;;;;;;;;5109619;28;20044;-73
2023/12/02 09:06:38;;;;;;;6.75;3.47;;;;;;;;;;5108710;28;20047;-73
2023/12/02 09:09:07;;;;;;;6.55;3.50;;;;;;;;;;5108661;28;20047;-73
2023/12/02 09:11:34;;;;;;;5.07;3.17;;;;;;;;;;5108931;28;20044;-73
2023/12/02 09:14:01;;;;;;;6.45;3.17;;;;;;;;;;5109421;28;20043;-73
2023/12/02 09:16:29;;;;;;;5.93;3.17;;;;;;;;;;5108578;28;20418;-72
2023/12/02 09:18:56;;;;;;;5.85;3.45;;;;;;;;;;5109014;28;20047;-72
2023/12/02 09:21:44;;;;;;;5.20;2.83;;;;;;;;;;5108628;28;20091;-73
2023/12/02 09:24:34;;;;;;;5.93;3.25;;;;;;;;;;5108476;28;20674;-73
2023/12/02 09:27:05;;;;;;;5.13;3.05;;;;;;;;;;5108672;28;20063;-73
2023/12/02 09:29:43;;;;;;;4.50;2.88;;;;;;;;;;5108702;28;20608;-73
2023/12/02 09:32:19;;;;;;;6.05;3.05;;;;;;;;;;5108677;28;20435;-72
2023/12/02 09:34:51;;;;;;;4.45;3.10;;;;;;;;;;5108842;28;20055;-73
2023/12/02 09:37:52;;;;;;;4.82;3.10;;;;;;;;;;5108544;28;20130;-73
2023/12/02 09:40:22;;;;;;;4.40;2.67;;;;;;;;;;5094243;28;20101;-74
2023/12/02 09:43:21;;;;;;;5.28;3.13;;;;;;;;;;5108867;28;20039;-73
2023/12/02 09:46:26;;;;;;;8.50;3.55;;;;;;;;;;5108644;28;20047;-73
2023/12/02 09:49:11;;;;;;;5.90;3.33;;;;;;;;;;5108515;28;20455;-74
2023/12/02 09:51:49;;;;;;;5.68;3.13;;;;;;;;;;5108593;28;20047;-73
2023/12/02 09:54:32;;;;;;;5.55;3.53;;;;;;;;;;5109631;28;20832;-73
2023/12/02 09:57:09;;;;;;;5.50;3.05;;;;;;;;;;5112506;28;20410;-73
2023/12/02 10:00:02;;;;;;;5.63;3.05;;;;;;;;;;5112710;28;20048;-73
2023/12/02 10:02:50;;;;;;;5.22;3.03;;;;;;;;;;5112275;28;20160;-72
2023/12/02 10:05:17;;;;;;;5.15;3.30;;;;;;;;;;5112849;28;20086;-73
2023/12/02 10:08:09;;;;;;;5.63;2.97;;;;;;;;;;5111998;28;20528;-72
2023/12/02 10:10:53;;;;;;;5.78;3.28;;;;;;;;;;5112021;28;20668;-73
2023/12/02 10:13:41;;;;;;;6.45;3.55;;;;;;;;;;5112371;28;20127;-72
2023/12/02 10:16:14;;;;;;;5.50;2.80;;;;;;;;;;5094266;28;20073;-73
2023/12/02 10:18:50;;;;;;;5.13;3.10;;;;;;;;;;5094182;28;20043;-72
2023/12/02 10:21:20;;;;;;;5.22;3.00;;;;;;;;;;5111720;28;20245;-72
2023/12/02 10:23:58;;;;;;;5.00;3.05;;;;;;;;;;5112044;28;20051;-72
2023/12/02 10:26:27;;;;;;;4.82;2.97;;;;;;;;;;5111924;28;20048;-72
2023/12/02 10:29:11;;;;;;;4.97;3.13;;;;;;;;;;5112001;28;20522;-72
2023/12/02 10:31:48;;;;;;;5.35;3.20;;;;;;;;;;5111689;28;20040;-72
2023/12/02 10:34:49;;;;;;;5.38;2.78;;;;;;;;;;5112256;28;20043;-72
2023/12/02 10:37:20;;;;;;;5.05;3.00;;;;;;;;;;5102272;28;20040;-72
2023/12/02 10:39:51;;;;;;;6.20;3.00;;;;;;;;;;5111507;28;20050;-72
2023/12/02 10:42:25;;;;;;;5.15;3.08;;;;;;;;;;5111491;28;20044;-72
2023/12/02 10:45:02;;;;;;;6.18;3.20;;;;;;;;;;5111696;28;20055;-72
2023/12/02 10:47:31;;;;;;;6.13;3.10;;;;;;;;;;5111157;28;20108;-72
2023/12/02 10:50:01;;;;;;;5.03;3.20;;;;;;;;;;5119850;27;20054;-72
2023/12/02 10:52:29;;;;;;;;;;;;;;;;;;5123027;27;20522;-72
2023/12/02 10:55:02;;;;;;;7.45;3.03;;;;;;;;;;5121027;27;19920;-72
2023/12/02 10:57:29;;;;;;;5.05;3.20;;;;;;;;;;5119898;27;20396;-72
2023/12/02 11:00:07;;;;;;;5.80;2.78;;;;;;;;;;5122048;27;20049;-73
2023/12/02 11:02:43;;;;;;;3.88;2.50;;;;;;;;;;5120241;27;20069;-72
2023/12/02 11:05:13;;;;;;;4.72;2.65;;;;;;;;;;5119930;27;20036;-72
2023/12/02 11:07:46;;;;;;;6.32;2.85;;;;;;;;;;5120925;27;20162;-72
2023/12/02 11:10:19;;;;;;;5.28;3.00;;;;;;;;;;5110387;28;20043;-72
2023/12/02 11:12:53;;;;;;;4.80;2.50;;;;;;;;;;5110512;28;20512;-72
2023/12/02 11:15:23;;;;;;;4.80;2.80;;;;;;;;;;5110351;28;20051;-72
2023/12/02 11:17:56;;;;;;;5.20;2.92;;;;;;;;;;5110400;28;20050;-72
2023/12/02 11:20:52;;;;;;;5.18;2.85;;;;;;;;;;5110380;28;20503;-74
2023/12/02 11:23:42;;;;;;;5.50;2.65;;;;;;;;;;5109955;28;20050;-74
2023/12/02 11:26:31;;;;;;;4.63;2.57;;;;;;;;;;5110363;28;20286;-73
2023/12/02 11:29:15;;;;;;;4.78;2.63;;;;;;;;;;5109967;28;20054;-74
2023/12/02 11:32:06;;;;;;;5.95;3.13;;;;;;;;;;5110275;28;20051;-73
2023/12/02 11:34:41;;;;;;;5.75;3.35;;;;;;;;;;5111014;28;20048;-74
2023/12/02 11:37:26;;;;;;;5.43;2.85;;;;;;;;;;5110270;28;20659;-72
2023/12/02 11:40:22;;;;;;;5.00;3.00;;;;;;;;;;5110414;28;20055;-72
2023/12/02 11:43:04;;;;;;;5.60;3.22;;;;;;;;;;5110660;28;20054;-73
2023/12/02 11:45:38;;;;;;;5.78;3.40;;;;;;;;;;5110923;28;20088;-73
2023/12/02 11:48:25;;;;;;;4.85;2.63;;;;;;;;;;5110252;28;20043;-73
2023/12/02 11:51:20;;;;;;;7.50;2.88;;;;;;;;;;5110314;28;20050;-72
2023/12/02 11:54:21;;;;;;;5.13;2.85;;;;;;;;;;5110100;28;20052;-72
2023/12/02 11:57:08;;;;;;;4.88;2.85;;;;;;;;;;5110336;28;20437;-72
2023/12/02 12:00:01;;;;;;;6.22;3.42;;;;;;;;;;5109985;28;20056;-73
2023/12/02 12:02:47;;;;;;;7.72;3.80;;;;;;;;;;5110239;28;20047;-72
2023/12/02 12:05:32;;;;;;;6.20;3.08;;;;;;;;;;5110322;28;20476;-73
2023/12/02 12:08:04;;;;;;;6.28;3.08;;;;;;;;;;5109587;28;20052;-73
2023/12/02 12:10:36;;;;;;;5.18;3.10;;;;;;;;;;5110132;28;20055;-72
2023/12/02 12:13:08;;;;;;;6.90;3.13;;;;;;;;;;5110040;28;20546;-73
2023/12/02 12:15:36;;;;;;;5.18;2.85;;;;;;;;;;5110353;28;20058;-72
2023/12/02 12:18:04;;;;;;;6.25;3.30;;;;;;;;;;5108955;28;20047;-73
2023/12/02 12:20:31;;;;;;;6.15;2.92;;;;;;;;;;5109914;28;20148;-72
2023/12/02 12:22:59;;;;;;;7.45;3.20;;;;;;;;;;5109599;28;20053;-72
2023/12/02 12:25:29;;;;;;;5.95;3.13;;;;;;;;;;5109513;28;20512;-72
2023/12/02 12:28:01;;;;;;;6.43;2.80;;;;;;;;;;5109351;28;20126;-72
2023/12/02 12:30:41;;;;;;;5.63;2.90;;;;;;;;;;5110142;28;20066;-72
2023/12/02 12:33:13;;;;;;;5.30;2.92;;;;;;;;;;5109569;28;20051;-72
2023/12/02 12:35:41;;;;;;;5.10;2.88;;;;;;;;;;5109969;28;20070;-73
2023/12/02 12:38:11;;;;;;;8.68;3.00;;;;;;;;;;5109118;28;20097;-74
2023/12/02 12:40:43;;;;;;;5.22;2.80;;;;;;;;;;5109336;28;20048;-73
2023/12/02 12:43:14;;;;;;;4.95;2.60;;;;;;;;;;5109140;28;20066;-72
2023/12/02 12:45:41;;;;;;;4.45;2.53;;;;;;;;;;5109677;28;20056;-73
2023/12/02 12:48:10;;;;;;;5.90;3.10;;;;;;;;;;5109393;28;20067;-72
2023/12/02 12:50:38;;;;;;;5.10;2.65;;;;;;;;;;5109372;28;20044;-72
2023/12/02 12:53:12;;;;;;;4.90;2.55;;;;;;;;;;5109464;28;20039;-73
2023/12/02 12:55:43;;;;;;;5.20;2.53;;;;;;;;;;5090841;28;20043;-72
2023/12/02 12:58:15;;;;;;;5.45;2.80;;;;;;;;;;5109112;28;20057;-73
2023/12/02 13:00:50;;;;;;;5.70;2.78;;;;;;;;;;5109385;28;20058;-72
2023/12/02 13:03:45;;;;;;;7.82;2.92;;;;;;;;;;5108865;28;20047;-72
2023/12/02 13:06:38;;;;;;;6.82;3.33;;;;;;;;;;5109224;28;20407;-72
2023/12/02 13:09:08;;;;;;;5.43;3.10;;;;;;;;;;5108852;28;20063;-72
2023/12/02 13:12:10;;;;;;;5.25;2.55;;;;;;;;;;5109027;28;20523;-72
2023/12/02 13:14:45;;;;;;;5.97;3.00;;;;;;;;;;5101983;28;20075;-72
2023/12/02 13:17:14;;;;;;;5.10;2.63;;;;;;;;;;5109177;28;20051;-72
2023/12/02 13:19:45;;;;;;;6.88;2.60;;;;;;;;;;5108626;28;20048;-72
2023/12/02 13:22:13;;;;;;;4.55;2.42;;;;;;;;;;5108816;28;20134;-72
2023/12/02 13:25:03;;;;;;;3.90;2.30;;;;;;;;;;5108443;28;20480;-72
2023/12/02 13:27:35;;;;;;;5.10;2.55;;;;;;;;;;5094636;28;20040;-72
2023/12/02 13:30:09;;;;;;;4.30;2.13;;;;;;;;;;5115546;28;20075;-72
2023/12/02 13:32:42;;;;;;;4.53;2.50;;;;;;;;;;5115385;28;20050;-73
2023/12/02 13:35:14;;;;;;;6.47;2.58;;;;;;;;;;5115325;28;20044;-72
2023/12/02 13:37:47;;;;;;;4.28;2.20;;;;;;;;;;5115763;28;20143;-72
2023/12/02 13:40:15;;;;;;;5.20;1.90;;;;;;;;;;5115228;28;20043;-72
2023/12/02 13:42:44;;;;;;;4.70;2.17;;;;;;;;;;5115646;28;20698;-73
2023/12/02 13:45:15;;;;;;;4.95;2.38;;;;;;;;;;5115776;28;20079;-72
2023/12/02 13:47:48;;;;;;;4.05;2.17;;;;;;;;;;5115790;28;20044;-72
2023/12/02 13:50:18;;;;;;;3.35;1.98;;;;;;;;;;5114934;28;20097;-72
2023/12/02 13:53:46;;;;;;;4.50;2.30;;;;;;;;;;5115474;28;20048;-72
2023/12/02 13:56:19;;;;;;;3.10;1.75;;;;;;;;;;5031977;28;20132;-72
2023/12/02 13:58:58;;;;;;;3.72;2.10;;;;;;;;;;5031749;28;20049;-72
2023/12/02 14:01:32;;;;;;;3.78;1.95;;;;;;;;;;5082253;28;20054;-72
2023/12/02 14:04:13;;;;;;;4.90;2.10;;;;;;;;;;5115356;28;20048;-72
2023/12/02 14:06:59;;;;;;;4.03;1.80;;;;;;;;;;5115348;28;20052;-72
2023/12/02 14:09:27;;;;;;;3.97;1.77;;;;;;;;;;5114827;28;20583;-72
2023/12/02 14:12:44;;;;;;;3.38;1.60;;;;;;;;;;5115409;28;20051;-72
2023/12/02 14:15:17;;;;;;;3.80;1.75;;;;;;;;;;5011624;28;20487;-72
2023/12/02 14:18:22;;;;;;;2.95;1.65;;;;;;;;;;5012154;28;20053;-71
2023/12/02 14:20:49;;;;;;;2.88;1.90;;;;;;;;;;5091961;28;20062;-72
2023/12/02 14:23:42;;;;;;;3.30;1.75;;;;;;;;;;5115308;28;20070;-72
2023/12/02 14:26:27;;;;;;;3.80;1.80;;;;;;;;;;5103952;28;20043;-72
2023/12/02 14:29:13;;;;;;;4.43;2.40;;;;;;;;;;5114640;28;20052;-72
2023/12/02 14:31:48;;;;;;;3.42;2.00;;;;;;;;;;5115165;28;20428;-72
2023/12/02 14:34:49;;;;;;;3.67;2.00;;;;;;;;;;5115208;28;20051;-72
2023/12/02 14:37:38;;;;;;;5.60;1.80;;;;;;;;;;5115318;28;20047;-73
2023/12/02 14:40:34;;;;;;;3.78;1.85;;;;;;;;;;5112033;28;20052;-73
2023/12/02 14:43:13;;;;;;;3.17;1.80;;;;;;;;;;5064276;28;20047;-73
2023/12/02 14:45:43;;;;;;;3.22;1.80;;;;;;;;;;5111775;28;20046;-73
2023/12/02 14:48:15;;;;;;;2.92;1.67;;;;;;;;;;5112088;28;20040;-73
2023/12/02 14:50:44;;;;;;;4.15;2.20;;;;;;;;;;5111753;28;20051;-73
2023/12/02 14:53:17;;;;;;;2.85;1.73;;;;;;;;;;5111870;28;20488;-73
2023/12/02 14:55:43;;;;;;;2.90;1.60;;;;;;;;;;5111738;28;20040;-73
2023/12/02 14:58:17;;;;;;;3.80;1.90;;;;;;;;;;5093517;28;20388;-73
2023/12/02 15:00:49;;;;;;;3.70;1.77;;;;;;;;;;5110815;28;20471;-74
2023/12/02 15:03:16;;;;;;;3.72;1.60;;;;;;;;;;5111193;28;20050;-74
2023/12/02 15:05:44;;;;;;;4.15;1.80;;;;;;;;;;5111029;28;20415;-73